Dom Joao — CSZA2 — position and weather

sailwx.info

Track history (hours):
 
Tides and Currents Weather Stations Pressure Air Temp Water Temp Dewpoint Dewpoint Depression Visibility Wind Speed Wind Dir Waves Ship Positions

Dom Joao

Last reported at 2017-Nov-19 12:11 UTC. Time now 2017-Nov-19 12:38 UTC.
Position N 38°42' W 009°10'.

Length 14 m.

Type: Passenger vessel. MMSI: 263673906.

Date/timePositionNaut miles runAvg speedWind from/ knotsBaromVisibWave heightAir tempDewpointWater temp
2017-Nov-19 12:11N 38°42' W 009°10'210.3
2017-Nov-19 12:00N 38°41' W 009°12'1 0.1
2017-Nov-18 14:06N 38°42' W 009°11'0 0.0
2017-Nov-18 13:36N 38°42' W 009°11'0 0.0
2017-Nov-18 13:24N 38°42' W 009°11'0 0.0
2017-Nov-18 12:47N 38°42' W 009°11'2 3.7
2017-Nov-18 12:18N 38°42' W 009°08'310.6
2017-Nov-18 12:00N 38°41' W 009°12'1 0.1
2017-Nov-17 15:08N 38°42' W 009°11'0 0.0
2017-Nov-17 14:38N 38°42' W 009°11'0 0.0
2017-Nov-17 13:38N 38°42' W 009°11'0 0.0
2017-Nov-17 13:02N 38°42' W 009°11'0 0.0
2017-Nov-17 12:53N 38°42' W 009°11'2 5.5
2017-Nov-17 12:27N 38°42' W 009°08'4 7.8
2017-Nov-17 12:00N 38°41' W 009°12'1 0.1
2017-Nov-16 12:34N 38°42' W 009°11'0 0.0
2017-Nov-16 12:05N 38°42' W 009°11'0 3.7
2017-Nov-16 12:00N 38°42' W 009°11'0 0.1
2017-Nov-16 08:23N 38°42' W 009°11'0 0.0
2017-Nov-16 07:53N 38°42' W 009°11'0 0.0
2017-Nov-16 03:53N 38°42' W 009°11'0 0.1
2017-Nov-16 03:29N 38°42' W 009°11'0 0.0
2017-Nov-16 02:04N 38°42' W 009°11'0 0.1
2017-Nov-16 01:53N 38°42' W 009°11'0 0.0
2017-Nov-16 01:26N 38°42' W 009°11'0 0.0
2017-Nov-16 00:56N 38°42' W 009°11'0 0.0
2017-Nov-16 00:20N 38°42' W 009°11'0 0.0
2017-Nov-15 23:44N 38°42' W 009°11'0 0.0
2017-Nov-15 22:02N 38°42' W 009°11'0 0.0
2017-Nov-15 19:05N 38°42' W 009°11'2 0.6
2017-Nov-15 16:09N 38°42' W 009°08'0 0.9
2017-Nov-15 15:53N 38°42' W 009°08'3 7.1
2017-Nov-15 15:28N 38°42' W 009°12'1 0.5
2017-Nov-15 12:48N 38°42' W 009°11'0 0.7
2017-Nov-15 12:09N 38°42' W 009°10'2 7.7
2017-Nov-15 11:51N 38°41' W 009°13'2 1.0
2017-Nov-15 10:03N 38°42' W 009°11'0 0.0
2017-Nov-15 09:48N 38°42' W 009°11'0 0.0
2017-Nov-14 16:18N 38°42' W 009°10'2 5.1
2017-Nov-14 15:56N 38°42' W 009°08'3 6.8
2017-Nov-14 15:28N 38°42' W 009°12'1 0.5
2017-Nov-14 12:55N 38°42' W 009°11'1 1.8
2017-Nov-14 12:18N 38°42' W 009°09'3 8.1
2017-Nov-14 11:59N 38°41' W 009°12'1 0.0
2017-Nov-12 16:24N 38°42' W 009°11'2 3.6
2017-Nov-12 15:55N 38°42' W 009°08'3 8.0
2017-Nov-12 15:30N 38°42' W 009°12'2 0.7
2017-Nov-12 13:07N 38°42' W 009°11'0 0.3
2017-Nov-12 12:53N 38°42' W 009°11'2 3.6
2017-Nov-12 12:25N 38°42' W 009°09'3 7.2
2017-Nov-12 12:00N 38°42' W 009°12'1 0.1
2017-Nov-11 16:39N 38°42' W 009°11'0 0.4
2017-Nov-11 16:24N 38°42' W 009°11'2 4.0
2017-Nov-11 15:55N 38°42' W 009°08'4 8.7
2017-Nov-11 15:30N 38°41' W 009°13'2 1.1
2017-Nov-11 13:53N 38°42' W 009°11'0 0.0
2017-Nov-11 13:23N 38°42' W 009°11'0 0.0
2017-Nov-11 12:53N 38°42' W 009°11'2 4.2
2017-Nov-11 12:26N 38°42' W 009°08'3 6.5
2017-Nov-11 12:00N 38°42' W 009°12'3 0.1
2017-Nov-10 15:52N 38°42' W 009°08'4 9.2
2017-Nov-10 15:29N 38°42' W 009°12'  
Track history (hours):
 
Tides and Currents Weather Stations Pressure Air Temp Water Temp Dewpoint Dewpoint Depression Visibility Wind Speed Wind Dir Waves Ship Positions

Dom Joao

Last reported at 2017-Nov-19 12:11 UTC. Time now 2017-Nov-19 12:38 UTC.
Position N 38°42' W 009°10'.

Length 14 m.

Type: Passenger vessel. MMSI: 263673906.

Date/timePositionNaut miles runAvg speedWind from/ knotsBaromVisibWave heightAir tempDewpointWater temp
2017-Nov-19 12:11N 38°42' W 009°10'210.3
2017-Nov-19 12:00N 38°41' W 009°12'1 0.1
2017-Nov-18 14:06N 38°42' W 009°11'0 0.0
2017-Nov-18 13:36N 38°42' W 009°11'0 0.0
2017-Nov-18 13:24N 38°42' W 009°11'0 0.0
2017-Nov-18 12:47N 38°42' W 009°11'2 3.7
2017-Nov-18 12:18N 38°42' W 009°08'310.6
2017-Nov-18 12:00N 38°41' W 009°12'1 0.1
2017-Nov-17 15:08N 38°42' W 009°11'0 0.0
2017-Nov-17 14:38N 38°42' W 009°11'0 0.0
2017-Nov-17 13:38N 38°42' W 009°11'0 0.0
2017-Nov-17 13:02N 38°42' W 009°11'0 0.0
2017-Nov-17 12:53N 38°42' W 009°11'2 5.5
2017-Nov-17 12:27N 38°42' W 009°08'4 7.8
2017-Nov-17 12:00N 38°41' W 009°12'1 0.1
2017-Nov-16 12:34N 38°42' W 009°11'0 0.0
2017-Nov-16 12:05N 38°42' W 009°11'0 3.7
2017-Nov-16 12:00N 38°42' W 009°11'0 0.1
2017-Nov-16 08:23N 38°42' W 009°11'0 0.0
2017-Nov-16 07:53N 38°42' W 009°11'0 0.0
2017-Nov-16 03:53N 38°42' W 009°11'0 0.1
2017-Nov-16 03:29N 38°42' W 009°11'0 0.0
2017-Nov-16 02:04N 38°42' W 009°11'0 0.1
2017-Nov-16 01:53N 38°42' W 009°11'0 0.0
2017-Nov-16 01:26N 38°42' W 009°11'0 0.0
2017-Nov-16 00:56N 38°42' W 009°11'0 0.0
2017-Nov-16 00:20N 38°42' W 009°11'0 0.0
2017-Nov-15 23:44N 38°42' W 009°11'0 0.0
2017-Nov-15 22:02N 38°42' W 009°11'0 0.0
2017-Nov-15 19:05N 38°42' W 009°11'2 0.6
2017-Nov-15 16:09N 38°42' W 009°08'0 0.9
2017-Nov-15 15:53N 38°42' W 009°08'3 7.1
2017-Nov-15 15:28N 38°42' W 009°12'1 0.5
2017-Nov-15 12:48N 38°42' W 009°11'0 0.7
2017-Nov-15 12:09N 38°42' W 009°10'2 7.7
2017-Nov-15 11:51N 38°41' W 009°13'2 1.0
2017-Nov-15 10:03N 38°42' W 009°11'0 0.0
2017-Nov-15 09:48N 38°42' W 009°11'0 0.0
2017-Nov-14 16:18N 38°42' W 009°10'2 5.1
2017-Nov-14 15:56N 38°42' W 009°08'3 6.8
2017-Nov-14 15:28N 38°42' W 009°12'1 0.5
2017-Nov-14 12:55N 38°42' W 009°11'1 1.8
2017-Nov-14 12:18N 38°42' W 009°09'3 8.1
2017-Nov-14 11:59N 38°41' W 009°12'1 0.0
2017-Nov-12 16:24N 38°42' W 009°11'2 3.6
2017-Nov-12 15:55N 38°42' W 009°08'3 8.0
2017-Nov-12 15:30N 38°42' W 009°12'2 0.7
2017-Nov-12 13:07N 38°42' W 009°11'0 0.3
2017-Nov-12 12:53N 38°42' W 009°11'2 3.6
2017-Nov-12 12:25N 38°42' W 009°09'3 7.2
2017-Nov-12 12:00N 38°42' W 009°12'1 0.1
2017-Nov-11 16:39N 38°42' W 009°11'0 0.4
2017-Nov-11 16:24N 38°42' W 009°11'2 4.0
2017-Nov-11 15:55N 38°42' W 009°08'4 8.7
2017-Nov-11 15:30N 38°41' W 009°13'2 1.1
2017-Nov-11 13:53N 38°42' W 009°11'0 0.0
2017-Nov-11 13:23N 38°42' W 009°11'0 0.0
2017-Nov-11 12:53N 38°42' W 009°11'2 4.2
2017-Nov-11 12:26N 38°42' W 009°08'3 6.5
2017-Nov-11 12:00N 38°42' W 009°12'3 0.1
2017-Nov-10 15:52N 38°42' W 009°08'4 9.2
2017-Nov-10 15:29N 38°42' W 009°12'  

Dump ship's entire track history